Fredericksburg, TX

2:35 PM CDT on April 26, 2015 (GMT -0500)
KNOPP SCHOOL RD | | Change Station
CLOSE
Current Station
Personal Weather Station
Location: Fredericksburg, TX
Elevation: 1752 ft
Nearby Weather Stations

Elev 1752 ft 30.33 °N, 98.80 °W | Updated 11 minutes ago

Clear
Clear
89.1 °F
Feels Like 89 °F
N
8.3
Wind Variable Wind from West

Today
High -- | Low -- °F
--% Chance of Precip.
Yesterday
High -- | Low -- °F
Precip. -- in
6:56 AM 8:09 PM
First Quarter, 58% visible
Pressure 29.65 in
Visibility 10.0 miles
Clouds Clear
Heat Index 89 °F
Dew Point 62 °F
Humidity 40%
Rainfall 0.00 in
Snow Depth Not available.
UV 12 out of 12
Pollen 7.70 out of 12
Air Quality Not available.
Flu Activity Local Activity
METAR KT82 261915Z AUTO 16012G20KT 10SM CLR 30/13 A2965 RMK AO2 T03000131

More Conditions Fewer Conditions

Pressure 29.65 in
Visibility 10.0 miles
Clouds Clear
Heat Index 89 °F
Dew Point 62 °F
Humidity 40%
Rainfall 0.00 in
Snow Depth Not available.
UV 12 out of 12
Pollen 7.70 out of 12
Air Quality Not available.
Flu Activity Local Activity
METAR KT82 261915Z AUTO 16012G20KT 10SM CLR 30/13 A2965 RMK AO2 T03000131

More Conditions Fewer Conditions

The full scope of the disaster following a powerful 7.8-magnitude earthquake in Nepal may not come into view for days, but global charities are already sending emergency aid. Click to see how you can help.

10-Day Weather Forecast

Almanac

Astronomy

Apr. 26, 2015 Rise Set
Actual Time
Civil Twilight
Nautical Twilight
Astronomical Twilight
Moon
Length of Visible Light
Length of Day
Tomorrow will be .
, % of the Moon is Illuminated

Today's Extremes

State Highs State Lows

Community

WunderPhotos

Upload Photos

1,817,097 photos uploaded!

WunderBlogs® & News

Nearby

Air Quality

  Air Quality AQ Index Pollutant
Not available.

Snow Depth

Station Depth Elevation

Earthquake Activity

City Distance Mag. Time & Date
Minimum magnitude displayed is 2.5.

Coastal Water Temperatures

Place Temperature

Stations

Nearby Weather Stations

Station Location Temp. Windchill Dew Point Humidity Wind Precip. Elev Updated Type